Latest Coastal Weather Observations for Walpole North

IDW60701

Issued at 2:05 am WST Sunday 21 September 2014 (issued every 10 minutes, with the page automatically refreshed every 10 minutes)

About coastal observations | Map of coastal stations | Coastal observations for WA | Marine services | Other Formats
Station Details ID: 009998 Name: NORTH WALPOLE Lat: -34.95 Lon: 116.72 Height: 73.0 m
Data from the previous 72 hours. | See also: Recent months at Walpole North
Date/Time
WST
Temp

°C
Wind Pressure Rain
since 9am
mm
Weather Cloud Vis
km
Sea
Height
m
Swell
Dir
 
Speed
knots
Gust
knots
hPa Trend Height
m
Period
s
Dir
21/02:00am 17.4 N 7 13 1005.0 - 0.0 - - - - - - -
21/01:30am 17.6 N 7 15 1005.5 - 0.0 - - - - - - -
21/01:00am 18.1 NNW 8 14 1005.6 - 0.0 - - - - - - -
21/12:30am 18.4 NNW 7 11 1006.3 - 0.0 - - - - - - -
21/12:00am 18.8 NW 10 15 1006.7 - 0.0 - - - - - - -
 
Date/Time
WST
Temp

°C
Wind Pressure Rain
since 9am
mm
Weather Cloud Vis
km
Sea
Height
m
Swell
Dir
 
Speed
knots
Gust
knots
hPa Trend Height
m
Period
s
Dir
20/11:30pm 19.1 NNW 10 14 1006.9 - 0.0 - - - - - - -
20/11:00pm 20.0 NNW 9 14 1007.2 - 0.0 - - - - - - -
20/10:30pm 19.8 NNW 7 13 1007.7 - 0.0 - - - - - - -
20/10:00pm 18.3 NNW 7 9 1008.0 - 0.0 - - - - - - -
20/09:30pm 18.4 NW 8 11 1008.5 - 0.0 - - - - - - -
20/09:00pm 19.0 WNW 8 12 1008.4 - 0.0 - - - - - - -
20/08:30pm 21.0 WNW 13 19 1007.9 - 0.0 - - - - - - -
20/08:00pm 24.0 NNE 6 9 1007.1 - 0.0 - - - - - - -
20/07:30pm 24.4 NE 7 10 1007.2 - 0.0 - - - - - - -
20/07:00pm 24.4 NE 7 9 1007.3 - 0.0 - - - - - - -
20/06:30pm 26.0 NNE 7 11 1007.5 - 0.0 - - - - - - -
20/06:00pm 25.9 NNE 7 10 1007.6 - 0.0 - - - - - - -
20/05:30pm 26.8 N 7 10 1007.8 - 0.0 - - - - - - -
20/05:00pm 27.3 N 8 17 1008.0 - 0.0 - - - - - - -
20/04:30pm 27.8 N 8 19 1007.9 - 0.0 - - - - - - -
20/04:00pm 28.0 N 8 14 1007.8 - 0.0 - - - - - - -
20/03:30pm 27.8 N 8 15 1007.9 - 0.0 - - - - - - -
20/03:00pm 27.8 N 9 16 1008.6 - 0.0 - - - - - - -
20/02:30pm 27.4 N 9 17 1009.2 - 0.0 - - - - - - -
20/02:00pm 27.2 N 9 23 1009.8 - 0.0 - - - - - - -
20/01:30pm 26.6 N 10 19 1010.4 - 0.0 - - - - - - -
20/01:00pm 26.3 N 8 15 1010.9 - 0.0 - - - - - - -
20/12:30pm 25.2 N 11 19 1011.3 - 0.0 - - - - - - -
20/12:00pm 24.8 N 9 20 1012.0 - 0.0 - - - - - - -
20/11:30am 24.1 N 8 14 1012.5 - 0.0 - - - - - - -
20/11:00am 22.7 N 9 17 1012.9 - 0.0 - - - - - - -
20/10:30am 21.7 N 9 14 1013.5 - 0.0 - - - - - - -
20/10:00am 20.8 NNE 9 18 1013.8 - 0.0 - - - - - - -
20/09:30am 19.6 NNE 9 15 1014.2 - 0.0 - - - - - - -
20/09:00am 18.1 NE 10 18 1014.9 - 0.0 - - - - - - -
20/08:30am 16.6 NE 8 14 1015.6 - 0.0 - - - - - - -
20/08:00am 15.3 NE 9 15 1015.9 - 0.0 - - - - - - -
20/07:30am 14.3 NE 10 16 1016.4 - 0.0 - - - - - - -
20/07:00am 13.2 NE 8 15 1016.6 - 0.0 - - - - - - -
20/06:30am 12.6 NE 9 14 1016.7 - 0.0 - - - - - - -
20/06:00am 12.6 NNE 11 17 1016.6 - 0.0 - - - - - - -
20/05:30am 12.5 NE 12 19 1016.7 - 0.0 - - - - - - -
20/05:00am 12.6 NE 11 17 1017.3 - 0.0 - - - - - - -
20/04:30am 12.8 NE 12 17 1017.5 - 0.0 - - - - - - -
20/04:00am 12.9 NNE 12 18 1017.7 - 0.0 - - - - - - -
20/03:30am 13.0 NNE 13 18 1018.0 - 0.0 - - - - - - -
20/03:00am 13.1 NNE 13 20 1018.3 - 0.0 - - - - - - -
20/02:30am 13.1 NNE 10 19 1018.5 - 0.0 - - - - - - -
20/02:00am 12.9 NNE 8 14 1019.0 - 0.0 - - - - - - -
20/01:30am 13.1 NNE 8 12 1019.3 - 0.0 - - - - - - -
20/01:00am 12.9 NNE 6 11 1019.8 - 0.0 - - - - - - -
20/12:30am 13.0 NE 5 9 1019.8 - 0.0 - - - - - - -
20/12:00am 12.8 ENE 4 7 1019.9 - 0.0 - - - - - - -
 
Date/Time
WST
Temp

°C
Wind Pressure Rain
since 9am
mm
Weather Cloud Vis
km
Sea
Height
m
Swell
Dir
 
Speed
knots
Gust
knots
hPa Trend Height
m
Period
s
Dir
19/11:30pm 13.0 ENE 5 8 1020.2 - 0.0 - - - - - - -
19/11:00pm 13.3 ENE 6 9 1020.5 - 0.0 - - - - - - -
19/10:30pm 13.5 NE 6 8 1020.7 - 0.0 - - - - - - -
19/10:00pm 13.6 ENE 6 8 1020.8 - 0.0 - - - - - - -
19/09:30pm 13.8 ENE 6 9 1021.1 - 0.0 - - - - - - -
19/09:00pm 14.1 ENE 7 10 1021.4 - 0.0 - - - - - - -
19/08:30pm 14.0 NE 5 7 1021.6 - 0.0 - - - - - - -
19/08:00pm 14.1 NE 5 6 1021.5 - 0.0 - - - - - - -
19/07:30pm 14.3 ENE 5 7 1021.3 - 0.0 - - - - - - -
19/07:00pm 14.7 E 4 5 1021.2 - 0.0 - - - - - - -
19/06:30pm 14.9 ESE 4 5 1020.8 - 0.0 - - - - - - -
19/06:00pm 16.0 ESE 3 5 1020.8 - 0.0 - - - - - - -
19/05:30pm 16.6 SE 5 7 1020.5 - 0.0 - - - - - - -
19/05:00pm 17.4 SE 6 10 1020.4 - 0.0 - - - - - - -
19/04:30pm 18.1 S 3 7 1020.2 - 0.0 - - - - - - -
19/04:00pm 18.9 SSE 4 8 1020.3 - 0.0 - - - - - - -
19/03:30pm 18.8 SSE 6 11 1020.3 - 0.0 - - - - - - -
19/03:00pm 19.4 SSE 5 10 1020.0 - 0.0 - - - - - - -
19/02:30pm 19.6 SSE 5 10 1020.1 - 0.0 - - - - - - -
19/02:00pm 20.0 SSE 6 10 1020.1 - 0.0 - - - - - - -
19/01:30pm 20.5 SSE 6 10 1020.3 - 0.0 - - - - - - -
19/01:00pm 20.9 W 5 11 1020.5 - 0.0 - - - - - - -
19/12:30pm 20.4 NNW 4 7 1020.7 - 0.0 - - - - - - -
19/12:00pm 19.8 NW 5 9 1021.0 - 0.0 - - - - - - -
19/11:30am 19.5 W 3 6 1021.3 - 0.0 - - - - - - -
19/11:00am 18.3 W 3 7 1021.5 - 0.0 - - - - - - -
19/10:30am 18.5 NW 5 8 1021.4 - 0.0 - - - - - - -
19/10:00am 17.7 WNW 4 7 1021.7 - 0.0 - - - - - - -
19/09:30am 17.5 WNW 5 8 1021.9 - 0.0 - - - - - - -
19/09:00am 16.5 CALM 0 0 1022.0 - 1.2 - - - - - - -
19/08:30am 15.4 CALM 0 0 1021.9 - 1.2 - - - - - - -
19/08:00am 14.7 CALM 0 0 1021.6 - 1.2 - - - - - - -
19/07:30am 13.9 CALM 0 0 1021.1 - 1.2 - - - - - - -
19/07:00am 13.0 CALM 0 0 1020.7 - 1.2 - - - - - - -
19/06:30am 12.9 CALM 0 0 1020.4 - 1.2 - - - - - - -
19/06:00am 13.0 CALM 0 0 1020.0 - 1.2 - - - - - - -
19/05:30am 13.0 CALM 0 0 1019.8 - 1.2 - - - - - - -
19/05:00am 13.2 W 4 6 1019.6 - 1.2 - - - - - - -
19/04:30am 13.7 WSW 8 14 1019.4 - 1.2 - - - - - - -
19/04:00am 13.9 WSW 6 8 1019.1 - 1.2 - - - - - - -
19/03:30am 14.1 WNW 7 10 1018.8 - 0.8 - - - - - - -
19/03:00am 13.7 WNW 5 8 1018.3 - 0.6 Rain - - - - - -
19/02:30am 13.3 W 5 9 1018.5 - 0.2 - - - - - - -
19/02:00am 13.8 NNW 7 11 1018.2 - 0.0 - - - - - - -
19/01:30am 13.7 NW 7 11 1018.3 - 0.0 - - - - - - -
19/01:00am 13.7 NW 6 9 1018.4 - 0.0 - - - - - - -
19/12:30am 14.0 NW 10 13 1018.3 - 0.0 - - - - - - -
19/12:00am 14.0 NNW 9 14 1018.2 - 0.0 - - - - - - -
 
Date/Time
WST
Temp

°C
Wind Pressure Rain
since 9am
mm
Weather Cloud Vis
km
Sea
Height
m
Swell
Dir
 
Speed
knots
Gust
knots
hPa Trend Height
m
Period
s
Dir
18/11:30pm 13.8 NW 9 14 1018.4 - 0.0 - - - - - - -
18/11:00pm 13.9 NW 8 10 1018.5 - 0.0 - - - - - - -
18/10:30pm 14.2 NW 9 11 1018.7 - 0.0 - - - - - - -
18/10:00pm 13.7 NW 7 11 1018.8 - 0.0 - - - - - - -
18/09:30pm 13.9 NW 7 9 1018.6 - 0.0 - - - - - - -
18/09:00pm 14.4 NW 9 14 1018.4 - 0.0 - - - - - - -
18/08:30pm 14.8 NW 10 15 1018.2 - 0.0 - - - - - - -
18/08:00pm 15.0 NW 11 14 1017.9 - 0.0 - - - - - - -
18/07:30pm 15.3 WNW 11 13 1017.8 - 0.0 - - - - - - -
18/07:00pm 14.9 WNW 7 10 1017.5 - 0.0 - - - - - - -
18/06:30pm 15.5 WNW 8 12 1016.9 - 0.0 - - - - - - -
18/06:00pm 16.3 W 9 14 1016.7 - 0.0 - - - - - - -
18/05:30pm 17.1 W 8 11 1016.7 - 0.0 - - - - - - -
18/05:00pm 18.6 W 8 14 1016.6 - 0.0 - - - - - - -
18/04:30pm 19.2 WNW 9 14 1015.9 - 0.0 - - - - - - -
18/04:00pm 19.7 WSW 9 14 1015.7 - 0.0 - - - - - - -
18/03:30pm 20.0 W 9 13 1015.7 - 0.0 - - - - - - -
18/03:00pm 20.0 W 10 15 1015.6 - 0.0 - - - - - - -
18/02:30pm 20.6 W 8 12 1015.7 - 0.0 - - - - - - -
18/02:00pm 20.9 W 8 13 1015.9 - 0.0 - - - - - - -
18/01:30pm 20.8 WSW 9 14 1016.1 - 0.0 - - - - - - -
18/01:00pm 19.7 SW 7 11 1016.2 - 0.0 - - - - - - -
18/12:30pm 18.8 SE 6 10 1016.5 - 0.0 - - - - - - -
18/12:00pm 19.1 S 5 8 1016.9 - 0.0 - - - - - - -
18/11:30am 19.5 S 5 8 1017.0 - 0.0 - - - - - - -
18/11:00am 19.3 W 3 6 1017.0 - 0.0 - - - - - - -
18/10:30am 18.8 CALM 0 0 1017.2 - 0.0 - - - - - - -
18/10:00am 18.0 CALM 0 0 1017.4 - 0.0 - - - - - - -
18/09:30am 17.0 E 4 6 1017.6 - 0.0 - - - - - - -
18/09:00am 16.2 ENE 4 6 1017.7 - 0.2 - - - - - - -
18/08:30am 14.8 CALM 0 0 1017.8 - 0.2 - - - - - - -
18/08:00am 13.2 CALM 0 0 1017.8 - 0.2 - - - - - - -
18/07:30am 11.6 CALM 0 0 1017.6 - 0.2 - - - - - - -
18/07:00am 11.0 CALM 0 0 1017.3 - 0.2 - - - - - - -
18/06:30am 11.1 CALM 0 0 1017.4 - 0.2 - - - - - - -
18/06:00am 10.4 CALM 0 0 1017.3 - 0.0 - - - - - - -
18/05:30am 10.7 CALM 0 0 1017.1 - 0.0 - - - - - - -
18/05:00am 10.3 CALM 0 0 1017.1 - 0.0 - - - - - - -
18/04:30am 10.0 CALM 0 0 1017.2 - 0.0 - - - - - - -
18/04:00am 10.9 CALM 0 0 1017.1 - 0.0 - - - - - - -
18/03:30am 12.0 CALM 0 0 1017.0 - 0.0 - - - - - - -
18/03:00am 12.0 CALM 0 0 1017.2 - 0.0 - - - - - - -
18/02:30am 10.7 CALM 0 0 1017.4 - 0.0 - - - - - - -

Other Formats:

Comma delimited format used in spreadsheet applications
http://www.bom.gov.au/fwo/IDW60701/IDW60701.95647.axf

JavaScript Object Notation format (JSON) in row-major order
http://www.bom.gov.au/fwo/IDW60701/IDW60701.95647.json